createdAt,value
2023-08-29T00:00:55.952Z,84.71
2023-08-29T00:03:22.976Z,79.23
2023-08-29T00:05:49.589Z,79.26
2023-08-29T00:08:17.090Z,79.37
2023-08-29T00:10:44.583Z,83.41
2023-08-29T00:13:11.187Z,85.06
2023-08-29T00:15:38.618Z,86.63
2023-08-29T00:18:06.000Z,85.23
2023-08-29T00:20:34.024Z,83.36
2023-08-29T00:23:00.633Z,83.89
2023-08-29T00:25:27.223Z,87.30
2023-08-29T00:27:53.841Z,89.08
2023-08-29T00:30:20.453Z,85.93
2023-08-29T00:32:47.061Z,84.82
2023-08-29T00:35:13.655Z,84.42
2023-08-29T00:37:40.262Z,85.38
2023-08-29T00:40:08.306Z,85.07
2023-08-29T00:42:34.907Z,83.95
2023-08-29T00:45:01.536Z,83.11
2023-08-29T00:47:29.206Z,84.32
2023-08-29T00:49:56.055Z,84.32
2023-08-29T00:52:22.882Z,87.52
2023-08-29T00:54:49.468Z,85.78
2023-08-29T00:57:16.322Z,85.42
2023-08-29T00:59:43.063Z,85.71
2023-08-29T01:02:09.718Z,88.81
2023-08-29T01:04:36.363Z,88.73
2023-08-29T01:07:04.674Z,86.37
2023-08-29T01:09:31.802Z,85.17
2023-08-29T01:12:17.631Z,85.64
2023-08-29T01:14:53.594Z,86.23
2023-08-29T01:17:40.557Z,88.97
2023-08-29T01:20:08.186Z,89.77
2023-08-29T01:23:13.570Z,87.40
2023-08-29T01:26:06.871Z,86.43
2023-08-29T01:28:34.333Z,85.08
2023-08-29T01:31:01.459Z,85.07
2023-08-29T01:33:29.125Z,85.36
2023-08-29T01:35:55.962Z,86.51
2023-08-29T01:38:22.602Z,86.86
2023-08-29T01:40:49.252Z,82.69
2023-08-29T01:43:15.926Z,82.61
2023-08-29T01:45:42.692Z,80.34
2023-08-29T01:48:12.639Z,81.72
2023-08-29T01:50:41.822Z,80.28
2023-08-29T01:53:09.072Z,79.08
2023-08-29T01:55:37.339Z,78.41
2023-08-29T01:58:06.174Z,78.22
2023-08-29T02:00:34.088Z,79.17
2023-08-29T02:03:01.075Z,81.13
2023-08-29T02:05:27.754Z,78.40
2023-08-29T02:07:54.342Z,78.03
2023-08-29T02:10:21.191Z,79.27
2023-08-29T02:12:47.776Z,77.46
2023-08-29T02:15:14.408Z,81.79
2023-08-29T02:17:41.307Z,82.67
2023-08-29T02:20:08.730Z,84.81
2023-08-29T02:22:35.325Z,82.91
2023-08-29T02:25:05.603Z,85.42
2023-08-29T02:27:35.762Z,86.52
2023-08-29T02:30:04.180Z,85.25
2023-08-29T02:32:30.824Z,84.62
2023-08-29T02:34:57.451Z,83.70
2023-08-29T02:37:24.051Z,83.18
2023-08-29T02:39:51.163Z,85.70
2023-08-29T02:42:17.851Z,85.68
2023-08-29T02:44:44.446Z,85.47
2023-08-29T02:47:11.021Z,85.83
2023-08-29T02:49:37.788Z,87.84
2023-08-29T02:52:04.850Z,85.12
2023-08-29T02:54:31.498Z,85.56
2023-08-29T02:56:58.266Z,84.50
2023-08-29T02:59:25.095Z,85.86
2023-08-29T03:01:51.708Z,85.11
2023-08-29T03:04:18.331Z,84.79
2023-08-29T03:06:44.925Z,81.91
2023-08-29T03:09:11.486Z,81.69
2023-08-29T03:11:38.132Z,81.94
2023-08-29T03:14:07.663Z,80.43
2023-08-29T03:16:34.275Z,79.50
2023-08-29T03:19:01.003Z,80.21
2023-08-29T03:21:28.020Z,81.96
2023-08-29T03:23:54.606Z,82.42
2023-08-29T03:26:21.194Z,86.28
2023-08-29T03:28:47.829Z,87.74
2023-08-29T03:31:16.665Z,88.34
2023-08-29T03:33:44.822Z,85.41
2023-08-29T03:36:12.322Z,83.21
2023-08-29T03:38:41.262Z,86.96
2023-08-29T03:41:08.146Z,87.36
2023-08-29T03:43:36.595Z,87.61
2023-08-29T03:46:07.800Z,86.80
2023-08-29T03:48:36.738Z,84.65
2023-08-29T03:51:07.767Z,84.79
2023-08-29T03:53:35.608Z,84.11
2023-08-29T03:56:06.724Z,84.57
2023-08-29T03:58:34.020Z,84.19
2023-08-29T04:01:00.953Z,84.32
2023-08-29T04:03:27.698Z,85.49
2023-08-29T04:05:54.488Z,85.59
2023-08-29T04:08:21.146Z,86.51
2023-08-29T04:10:48.135Z,86.81
2023-08-29T04:13:14.849Z,87.37
2023-08-29T04:15:41.994Z,88.55
2023-08-29T04:18:12.499Z,88.74
2023-08-29T04:20:39.556Z,89.58
2023-08-29T04:23:08.168Z,89.08
2023-08-29T04:25:37.748Z,89.05
2023-08-29T04:28:06.088Z,87.02
2023-08-29T04:30:33.113Z,86.95
2023-08-29T04:33:00.923Z,87.94
2023-08-29T04:35:27.981Z,82.13
2023-08-29T04:37:55.800Z,82.60
2023-08-29T04:40:22.859Z,82.95
2023-08-29T04:42:52.526Z,81.96
2023-08-29T04:45:20.580Z,81.75
2023-08-29T04:47:47.387Z,80.42
2023-08-29T04:50:15.190Z,78.78
2023-08-29T04:52:42.153Z,80.11
2023-08-29T04:55:08.987Z,80.35
2023-08-29T04:57:35.847Z,80.38
2023-08-29T05:00:02.584Z,79.46
2023-08-29T05:02:29.290Z,78.06
2023-08-29T05:04:55.987Z,77.13
2023-08-29T05:07:22.608Z,82.18
2023-08-29T05:09:49.274Z,78.81
2023-08-29T05:12:17.514Z,79.88
2023-08-29T05:14:44.325Z,78.82
2023-08-29T05:17:11.459Z,78.59
2023-08-29T05:19:38.505Z,78.10
2023-08-29T05:22:05.464Z,77.22
2023-08-29T05:24:32.183Z,76.03
2023-08-29T05:26:58.927Z,74.57
2023-08-29T05:29:25.551Z,75.63
2023-08-29T05:31:52.198Z,75.12
2023-08-29T05:34:18.787Z,74.94
2023-08-29T05:36:47.919Z,72.41
2023-08-29T05:39:15.206Z,71.70
2023-08-29T05:41:41.906Z,72.76
2023-08-29T05:44:08.582Z,72.96
2023-08-29T05:46:35.301Z,74.80
2023-08-29T05:49:01.962Z,73.32
2023-08-29T05:51:28.636Z,73.96
2023-08-29T05:53:55.228Z,73.10
2023-08-29T05:56:22.181Z,71.64
2023-08-29T05:58:48.829Z,69.96
2023-08-29T06:01:16.296Z,68.07
2023-08-29T06:06:09.889Z,62.84
2023-08-29T06:08:37.668Z,59.15
2023-08-29T06:11:07.495Z,57.16
2023-08-29T06:13:34.363Z,57.03
2023-08-29T06:16:01.099Z,57.43
2023-08-29T06:18:28.009Z,58.11
2023-08-29T06:20:54.654Z,53.93
2023-08-29T06:23:21.369Z,54.00
2023-08-29T06:25:50.077Z,53.60
2023-08-29T06:28:16.693Z,52.61
2023-08-29T06:30:43.332Z,52.48
2023-08-29T06:33:10.233Z,50.13
2023-08-29T06:35:39.994Z,50.55
2023-08-29T06:38:07.965Z,51.57
2023-08-29T06:40:35.130Z,51.59
2023-08-29T06:43:02.377Z,53.62
2023-08-29T06:45:29.214Z,52.63
2023-08-29T06:47:55.973Z,51.94
2023-08-29T06:50:22.739Z,51.24
2023-08-29T06:52:49.337Z,50.56
2023-08-29T06:55:17.702Z,49.05
2023-08-29T06:57:44.465Z,48.60
2023-08-29T07:00:12.178Z,48.27
2023-08-29T07:02:39.067Z,47.36
2023-08-29T07:05:06.075Z,47.31
2023-08-29T07:07:32.903Z,45.83
2023-08-29T07:09:59.690Z,46.61
2023-08-29T07:12:26.345Z,45.47
2023-08-29T07:14:52.963Z,46.33
2023-08-29T07:17:19.623Z,44.50
2023-08-29T07:19:46.364Z,44.62
2023-08-29T07:24:42.772Z,44.04
2023-08-29T07:27:09.316Z,44.96
2023-08-29T07:29:36.000Z,45.89
2023-08-29T07:32:02.588Z,43.15
2023-08-29T07:34:29.244Z,43.30
2023-08-29T07:36:55.813Z,43.38
2023-08-29T07:39:25.415Z,42.22
2023-08-29T07:41:52.054Z,42.77
2023-08-29T07:44:18.765Z,44.25
2023-08-29T07:46:58.274Z,42.22
2023-08-29T07:49:32.143Z,42.11
2023-08-29T07:51:58.988Z,41.48
2023-08-29T07:54:25.623Z,41.99
2023-08-29T07:56:52.267Z,43.15
2023-08-29T07:59:18.948Z,41.39
2023-08-29T08:01:46.495Z,40.70
2023-08-29T08:04:13.205Z,41.76
2023-08-29T08:06:40.941Z,41.63
2023-08-29T08:09:07.622Z,40.81
2023-08-29T08:11:34.223Z,40.93
2023-08-29T08:14:00.833Z,40.90
2023-08-29T08:16:27.563Z,41.52
2023-08-29T08:18:54.225Z,41.03
2023-08-29T08:21:22.220Z,41.51
2023-08-29T08:23:49.536Z,41.51
2023-08-29T08:26:16.487Z,41.68
2023-08-29T08:28:44.935Z,42.59
2023-08-29T08:31:12.019Z,42.03
2023-08-29T08:33:38.745Z,43.37
2023-08-29T08:36:05.949Z,43.23
2023-08-29T08:38:32.725Z,42.87
2023-08-29T08:41:00.014Z,42.89
2023-08-29T08:43:29.287Z,43.28
2023-08-29T08:45:57.666Z,43.29
2023-08-29T08:48:25.046Z,43.59
2023-08-29T08:50:51.998Z,43.19
2023-08-29T08:53:19.905Z,44.37
2023-08-29T08:55:46.822Z,43.88
2023-08-29T08:58:13.730Z,43.65
2023-08-29T09:00:40.678Z,43.43
2023-08-29T09:03:08.038Z,43.76
2023-08-29T09:05:34.895Z,43.58
2023-08-29T09:08:01.855Z,42.57
2023-08-29T09:10:32.525Z,42.45
2023-08-29T09:12:59.137Z,41.86
2023-08-29T09:15:27.363Z,41.36
2023-08-29T09:17:55.299Z,41.72
2023-08-29T09:20:23.555Z,41.74
2023-08-29T09:22:50.211Z,41.04
2023-08-29T09:25:17.016Z,41.40
2023-08-29T09:27:46.283Z,41.57
2023-08-29T09:30:15.295Z,40.66
2023-08-29T09:32:43.760Z,41.17
2023-08-29T09:35:15.367Z,41.58
2023-08-29T09:37:46.304Z,40.95
2023-08-29T09:40:31.898Z,40.41
2023-08-29T09:43:05.559Z,40.88
2023-08-29T09:45:33.103Z,40.67
2023-08-29T09:48:04.590Z,41.25
2023-08-29T09:50:32.038Z,40.09
2023-08-29T09:52:59.954Z,41.57
2023-08-29T09:55:27.558Z,40.42
2023-08-29T09:57:55.084Z,41.03
2023-08-29T10:00:22.669Z,41.26
2023-08-29T10:02:52.840Z,40.46
2023-08-29T10:05:26.673Z,39.53
2023-08-29T10:07:58.302Z,39.67
2023-08-29T10:10:26.033Z,39.05
2023-08-29T10:12:55.686Z,39.67
2023-08-29T10:15:22.895Z,39.18
2023-08-29T10:17:50.308Z,40.09
2023-08-29T10:20:18.639Z,39.88
2023-08-29T10:22:49.332Z,39.39
2023-08-29T10:25:19.842Z,40.07
2023-08-29T10:27:46.659Z,40.47
2023-08-29T10:30:13.787Z,39.93
2023-08-29T10:32:42.139Z,39.88
2023-08-29T10:35:18.509Z,39.76
2023-08-29T10:37:45.138Z,40.83
2023-08-29T10:40:15.212Z,40.05
2023-08-29T10:42:58.264Z,39.66
2023-08-29T10:45:43.518Z,39.96
2023-08-29T10:48:10.974Z,38.90
2023-08-29T10:50:38.461Z,39.00
2023-08-29T10:53:05.998Z,38.89
2023-08-29T10:55:35.400Z,38.91
2023-08-29T10:58:33.704Z,38.90
2023-08-29T11:01:00.400Z,38.05
2023-08-29T11:03:40.497Z,38.63
2023-08-29T11:06:08.021Z,37.98
2023-08-29T11:08:34.928Z,38.71
2023-08-29T11:11:13.567Z,38.85
2023-08-29T11:14:04.932Z,39.72
2023-08-29T11:16:36.566Z,39.02
2023-08-29T11:19:08.141Z,38.75
2023-08-29T11:21:35.260Z,37.99
2023-08-29T11:24:15.725Z,38.04
2023-08-29T11:26:47.597Z,37.66
2023-08-29T11:29:14.564Z,37.67
2023-08-29T11:31:45.087Z,36.89
2023-08-29T11:34:19.619Z,37.15
2023-08-29T11:36:52.633Z,37.72
2023-08-29T11:39:23.098Z,37.41
2023-08-29T11:42:23.900Z,37.31
2023-08-29T11:45:19.878Z,37.06
2023-08-29T11:47:25.231Z,38.48
2023-08-29T11:49:53.094Z,37.12
2023-08-29T11:52:20.060Z,36.71
2023-08-29T11:54:47.891Z,37.16
2023-08-29T11:57:15.451Z,38.32
2023-08-29T11:59:43.650Z,36.72
2023-08-29T12:02:16.835Z,36.75
2023-08-29T12:04:46.704Z,35.57
2023-08-29T12:07:15.106Z,34.90
2023-08-29T12:09:44.029Z,34.31
2023-08-29T12:12:37.453Z,34.46
2023-08-29T12:15:07.108Z,34.99
2023-08-29T12:17:35.374Z,35.45
2023-08-29T12:20:02.161Z,35.43
2023-08-29T12:22:32.647Z,35.38
2023-08-29T12:25:02.457Z,35.85
2023-08-29T12:27:29.154Z,35.64
2023-08-29T12:29:55.813Z,35.95
2023-08-29T12:32:29.822Z,36.50
2023-08-29T12:34:57.563Z,36.99
2023-08-29T12:37:25.157Z,36.18
2023-08-29T12:39:52.558Z,35.81
2023-08-29T12:42:19.658Z,36.09
2023-08-29T12:44:46.296Z,35.42
2023-08-29T12:47:12.923Z,35.74
2023-08-29T12:49:39.587Z,36.14
2023-08-29T12:52:06.975Z,35.26
2023-08-29T12:54:34.920Z,34.92
2023-08-29T12:57:01.512Z,35.09
2023-08-29T12:59:28.274Z,35.19
2023-08-29T13:01:55.005Z,34.23
2023-08-29T13:04:21.623Z,34.41
2023-08-29T13:06:48.210Z,34.82
2023-08-29T13:09:30.943Z,35.27
2023-08-29T13:12:02.229Z,35.39
2023-08-29T13:14:37.726Z,34.49
2023-08-29T13:17:05.841Z,35.20
2023-08-29T13:19:39.620Z,34.64
2023-08-29T13:22:07.407Z,34.77
2023-08-29T13:24:34.993Z,35.24
2023-08-29T13:27:04.678Z,34.47
2023-08-29T13:29:45.337Z,34.18
2023-08-29T13:32:17.606Z,34.97
2023-08-29T13:34:50.418Z,34.52
2023-08-29T13:37:16.975Z,34.64
2023-08-29T13:39:44.102Z,34.75
2023-08-29T13:42:11.022Z,36.11
2023-08-29T13:44:37.637Z,35.80
2023-08-29T13:47:04.267Z,35.54
2023-08-29T13:49:30.935Z,36.65
2023-08-29T13:52:15.728Z,36.74
2023-08-29T13:54:42.497Z,37.49
2023-08-29T13:57:09.159Z,37.73
2023-08-29T13:59:35.831Z,37.53
2023-08-29T14:02:03.180Z,37.57
2023-08-29T14:04:29.932Z,37.45
2023-08-29T14:06:57.906Z,38.05
2023-08-29T14:09:24.584Z,36.49
2023-08-29T14:11:51.357Z,34.93
2023-08-29T14:14:18.431Z,35.58
2023-08-29T14:16:45.285Z,35.92
2023-08-29T14:19:11.827Z,36.05
2023-08-29T14:21:38.526Z,35.68
2023-08-29T14:24:05.353Z,35.97
2023-08-29T14:26:32.019Z,35.41
2023-08-29T14:28:58.670Z,35.22
2023-08-29T14:31:25.508Z,34.57
2023-08-29T14:33:52.420Z,34.09
2023-08-29T14:36:19.876Z,34.19
2023-08-29T14:38:46.609Z,34.89
2023-08-29T14:41:14.035Z,34.55
2023-08-29T14:43:41.464Z,34.49
2023-08-29T14:46:09.135Z,34.56
2023-08-29T14:48:38.096Z,34.68
2023-08-29T14:51:07.851Z,35.17
2023-08-29T14:53:35.156Z,34.82
2023-08-29T14:56:03.779Z,34.06
2023-08-29T14:58:32.264Z,34.28
2023-08-29T15:00:58.974Z,33.83
2023-08-29T15:03:26.017Z,34.49
2023-08-29T15:05:59.811Z,34.40
2023-08-29T15:08:27.319Z,33.99
2023-08-29T15:10:54.947Z,33.68
2023-08-29T15:13:27.901Z,33.24
2023-08-29T15:15:54.801Z,33.70
2023-08-29T15:18:21.383Z,33.49
2023-08-29T15:20:47.942Z,33.23
2023-08-29T15:23:14.599Z,33.54
2023-08-29T15:25:41.367Z,33.82
2023-08-29T15:28:09.990Z,34.53
2023-08-29T15:30:37.650Z,34.72
2023-08-29T15:33:04.761Z,34.98
2023-08-29T15:35:31.462Z,35.04
2023-08-29T15:37:58.480Z,35.54
2023-08-29T15:40:24.987Z,35.45
2023-08-29T15:42:51.691Z,35.85
2023-08-29T15:45:18.604Z,35.78
2023-08-29T15:47:45.079Z,36.09
2023-08-29T15:50:12.392Z,36.52
2023-08-29T15:52:39.152Z,36.29
2023-08-29T15:55:06.248Z,36.52
2023-08-29T15:57:32.889Z,36.86
2023-08-29T15:59:59.404Z,37.17
2023-08-29T16:02:26.022Z,37.23
2023-08-29T16:04:54.397Z,38.14
2023-08-29T16:07:21.079Z,37.84
2023-08-29T16:09:47.769Z,38.16
2023-08-29T16:12:14.405Z,38.48
2023-08-29T16:14:41.027Z,39.09
2023-08-29T16:17:07.684Z,38.59
2023-08-29T16:19:34.601Z,38.84
2023-08-29T16:22:01.183Z,39.21
2023-08-29T16:24:27.945Z,38.40
2023-08-29T16:26:54.621Z,38.75
2023-08-29T16:29:21.247Z,38.47
2023-08-29T16:31:48.280Z,38.70
2023-08-29T16:34:14.742Z,38.13
2023-08-29T16:36:41.451Z,38.36
2023-08-29T16:39:10.283Z,38.43
2023-08-29T16:41:37.976Z,38.28
2023-08-29T16:44:05.200Z,38.44
2023-08-29T16:46:31.978Z,38.43
2023-08-29T16:48:59.840Z,38.53
2023-08-29T16:51:26.489Z,38.43
2023-08-29T16:53:53.123Z,38.38
2023-08-29T16:56:19.743Z,38.63
2023-08-29T16:58:46.506Z,38.74
2023-08-29T17:01:13.230Z,38.98
2023-08-29T17:03:40.211Z,38.99
2023-08-29T17:06:06.733Z,39.42
2023-08-29T17:08:33.538Z,39.40
2023-08-29T17:11:00.174Z,39.24
2023-08-29T17:13:26.790Z,39.46
2023-08-29T17:15:53.440Z,39.76
2023-08-29T17:18:20.245Z,39.89
2023-08-29T17:20:46.933Z,39.94
2023-08-29T17:23:13.646Z,40.05
2023-08-29T17:25:40.371Z,40.35
2023-08-29T17:28:07.441Z,40.43
2023-08-29T17:30:34.240Z,40.83
2023-08-29T17:33:01.343Z,40.74
2023-08-29T17:35:28.073Z,40.89
2023-08-29T17:37:54.712Z,40.84
2023-08-29T17:40:21.487Z,40.91
2023-08-29T17:42:48.922Z,41.22
2023-08-29T17:45:18.565Z,41.18
2023-08-29T17:47:45.503Z,41.29
2023-08-29T17:50:12.992Z,41.09
2023-08-29T17:52:39.798Z,41.68
2023-08-29T17:55:08.030Z,42.26
2023-08-29T17:57:34.787Z,42.83
2023-08-29T18:00:01.510Z,43.20
2023-08-29T18:02:28.293Z,42.57
2023-08-29T18:04:55.365Z,42.78
2023-08-29T18:07:22.190Z,43.59
2023-08-29T18:10:10.595Z,43.30
2023-08-29T18:12:39.017Z,43.57
2023-08-29T18:15:07.395Z,43.11
2023-08-29T18:17:34.749Z,43.25
2023-08-29T18:20:01.682Z,50.69
2023-08-29T18:22:28.358Z,49.46
2023-08-29T18:24:55.075Z,49.84
2023-08-29T18:27:23.749Z,50.94
2023-08-29T18:29:50.486Z,50.54
2023-08-29T18:32:17.226Z,50.81
2023-08-29T18:34:44.181Z,47.69
2023-08-29T18:37:11.397Z,49.18
2023-08-29T18:39:38.691Z,48.14
2023-08-29T18:42:06.829Z,47.42
2023-08-29T18:44:35.780Z,49.15
2023-08-29T18:47:02.800Z,48.19
2023-08-29T18:49:30.982Z,49.85
2023-08-29T18:51:57.624Z,52.21
2023-08-29T18:54:24.263Z,50.63
2023-08-29T18:56:51.040Z,51.35
2023-08-29T18:59:17.724Z,51.04
2023-08-29T19:01:44.443Z,52.20
2023-08-29T19:04:11.099Z,52.40
2023-08-29T19:06:37.891Z,53.94
2023-08-29T19:09:04.894Z,53.38
2023-08-29T19:11:34.522Z,52.32
2023-08-29T19:14:01.306Z,52.88
2023-08-29T19:16:27.892Z,53.98
2023-08-29T19:18:54.504Z,54.44
2023-08-29T19:21:22.567Z,62.68
2023-08-29T19:23:49.130Z,62.60
2023-08-29T19:26:15.755Z,62.33
2023-08-29T19:28:42.551Z,59.13
2023-08-29T19:31:09.295Z,60.17
2023-08-29T19:33:35.964Z,58.79
2023-08-29T19:36:16.491Z,60.06
2023-08-29T19:38:44.279Z,60.07
2023-08-29T19:41:14.294Z,60.76
2023-08-29T19:43:41.691Z,60.04
2023-08-29T19:46:08.519Z,61.18
2023-08-29T19:48:35.324Z,60.18
2023-08-29T19:51:01.979Z,59.78
2023-08-29T19:53:28.646Z,59.83
2023-08-29T19:55:55.570Z,58.62
2023-08-29T19:58:22.734Z,61.23
2023-08-29T20:00:50.715Z,58.35
2023-08-29T20:03:17.710Z,60.44
2023-08-29T20:05:47.476Z,61.61
2023-08-29T20:08:15.285Z,62.93
2023-08-29T20:10:43.910Z,67.52
2023-08-29T20:13:10.729Z,61.16
2023-08-29T20:15:44.561Z,61.54
2023-08-29T20:18:12.730Z,60.99
2023-08-29T20:20:41.130Z,62.49
2023-08-29T20:23:11.452Z,64.65
2023-08-29T20:25:39.273Z,64.83
2023-08-29T20:28:11.859Z,60.70
2023-08-29T20:30:39.310Z,62.39
2023-08-29T20:33:06.864Z,62.96
2023-08-29T20:35:35.385Z,61.77
2023-08-29T20:38:02.449Z,64.77
2023-08-29T20:40:29.094Z,57.78
2023-08-29T20:42:55.697Z,64.18
2023-08-29T20:45:24.364Z,65.31
2023-08-29T20:47:51.486Z,62.23
2023-08-29T20:50:18.536Z,64.09
2023-08-29T20:52:45.291Z,67.26
2023-08-29T20:55:12.639Z,69.00
2023-08-29T20:57:39.461Z,67.16
2023-08-29T21:00:06.548Z,69.79
2023-08-29T21:02:33.293Z,69.57
2023-08-29T21:05:00.235Z,68.57
2023-08-29T21:07:27.281Z,66.50
2023-08-29T21:09:53.886Z,67.13
2023-08-29T21:12:22.432Z,65.82
2023-08-29T21:14:49.587Z,64.55
2023-08-29T21:17:17.946Z,65.05
2023-08-29T21:19:45.106Z,67.39
2023-08-29T21:22:11.803Z,70.99
2023-08-29T21:24:38.574Z,72.16
2023-08-29T21:27:05.447Z,72.30
2023-08-29T21:29:32.133Z,73.65
2023-08-29T21:31:58.819Z,74.05
2023-08-29T21:34:25.908Z,74.84
2023-08-29T21:36:52.567Z,74.88
2023-08-29T21:39:19.295Z,74.42
2023-08-29T21:41:45.934Z,71.92
2023-08-29T21:44:13.423Z,70.99
2023-08-29T21:46:39.985Z,72.76
2023-08-29T21:49:06.658Z,72.73
2023-08-29T21:51:33.413Z,73.20
2023-08-29T21:53:59.981Z,70.88
2023-08-29T21:56:26.664Z,71.55
2023-08-29T21:58:53.653Z,69.67
2023-08-29T22:01:21.446Z,71.18
2023-08-29T22:03:50.051Z,72.42
2023-08-29T22:06:16.863Z,73.93
2023-08-29T22:08:43.476Z,75.30
2023-08-29T22:11:10.098Z,76.15
2023-08-29T22:13:36.824Z,72.02
2023-08-29T22:16:04.646Z,68.74
2023-08-29T22:18:31.332Z,69.31
2023-08-29T22:20:58.033Z,70.27
2023-08-29T22:23:24.695Z,68.20
2023-08-29T22:25:51.368Z,68.63
2023-08-29T22:28:18.076Z,70.74
2023-08-29T22:30:44.694Z,69.95
2023-08-29T22:33:11.374Z,72.24
2023-08-29T22:35:38.108Z,75.48
2023-08-29T22:38:05.248Z,76.93
2023-08-29T22:40:32.281Z,76.78
2023-08-29T22:42:58.919Z,77.56
2023-08-29T22:45:25.640Z,77.13
2023-08-29T22:47:52.279Z,76.14
2023-08-29T22:50:18.998Z,75.87
2023-08-29T22:52:45.635Z,76.71
2023-08-29T22:55:13.896Z,77.66
2023-08-29T22:57:41.212Z,81.14
2023-08-29T23:00:13.678Z,80.68
2023-08-29T23:02:40.929Z,82.21
2023-08-29T23:05:08.815Z,81.58
2023-08-29T23:07:37.481Z,80.54
2023-08-29T23:10:05.104Z,80.75
2023-08-29T23:12:31.756Z,78.18
2023-08-29T23:14:58.350Z,79.13
2023-08-29T23:17:24.942Z,77.92
2023-08-29T23:19:51.639Z,78.66
2023-08-29T23:22:18.257Z,82.81
2023-08-29T23:24:44.860Z,78.57
2023-08-29T23:27:12.262Z,78.25
2023-08-29T23:29:38.992Z,79.66
2023-08-29T23:32:06.166Z,79.81
2023-08-29T23:34:32.809Z,78.13
2023-08-29T23:36:59.572Z,77.01
2023-08-29T23:39:26.137Z,77.42
2023-08-29T23:41:53.389Z,76.70
2023-08-29T23:44:19.900Z,77.39
2023-08-29T23:46:46.571Z,77.92
2023-08-29T23:49:13.748Z,78.53
2023-08-29T23:51:40.392Z,78.30
2023-08-29T23:54:07.292Z,77.92
2023-08-29T23:56:33.859Z,77.54
2023-08-29T23:59:00.486Z,77.08
